sensor_id;sensor_type;location;lat;lon;timestamp;P1;durP1;ratioP1;P2;durP2;ratioP2
9783;SDS011;4931;44.874;-1.092;2024-01-10T00:00:17;25.15;;;11.75;;
9783;SDS011;4931;44.874;-1.092;2024-01-10T00:02:43;23.00;;;10.80;;
9783;SDS011;4931;44.874;-1.092;2024-01-10T00:05:08;26.40;;;12.45;;
9783;SDS011;4931;44.874;-1.092;2024-01-10T00:07:40;24.50;;;11.65;;
9783;SDS011;4931;44.874;-1.092;2024-01-10T00:10:05;25.98;;;11.98;;
9783;SDS011;4931;44.874;-1.092;2024-01-10T00:12:31;24.58;;;11.35;;
9783;SDS011;4931;44.874;-1.092;2024-01-10T00:15:01;25.80;;;11.32;;
9783;SDS011;4931;44.874;-1.092;2024-01-10T00:17:28;23.10;;;10.93;;
9783;SDS011;4931;44.874;-1.092;2024-01-10T00:19:54;28.35;;;11.80;;
9783;SDS011;4931;44.874;-1.092;2024-01-10T00:22:19;22.20;;;11.60;;
9783;SDS011;4931;44.874;-1.092;2024-01-10T00:24:45;23.73;;;11.32;;
9783;SDS011;4931;44.874;-1.092;2024-01-10T00:27:10;27.52;;;13.20;;
9783;SDS011;4931;44.874;-1.092;2024-01-10T00:29:35;25.27;;;12.68;;
9783;SDS011;4931;44.874;-1.092;2024-01-10T00:32:01;32.67;;;13.00;;
9783;SDS011;4931;44.874;-1.092;2024-01-10T00:34:27;19.33;;;10.23;;
9783;SDS011;4931;44.874;-1.092;2024-01-10T00:36:52;20.42;;;10.02;;
9783;SDS011;4931;44.874;-1.092;2024-01-10T00:39:18;23.48;;;11.75;;
9783;SDS011;4931;44.874;-1.092;2024-01-10T00:41:43;24.05;;;11.55;;
9783;SDS011;4931;44.874;-1.092;2024-01-10T00:44:08;24.35;;;11.68;;
9783;SDS011;4931;44.874;-1.092;2024-01-10T00:46:34;37.80;;;16.45;;
9783;SDS011;4931;44.874;-1.092;2024-01-10T00:48:59;34.10;;;14.73;;
9783;SDS011;4931;44.874;-1.092;2024-01-10T00:51:25;23.70;;;11.20;;
9783;SDS011;4931;44.874;-1.092;2024-01-10T00:53:50;26.40;;;13.73;;
9783;SDS011;4931;44.874;-1.092;2024-01-10T00:56:16;26.55;;;13.55;;
9783;SDS011;4931;44.874;-1.092;2024-01-10T00:58:41;25.98;;;12.77;;
9783;SDS011;4931;44.874;-1.092;2024-01-10T01:01:07;29.70;;;13.30;;
9783;SDS011;4931;44.874;-1.092;2024-01-10T01:03:32;20.50;;;9.90;;
9783;SDS011;4931;44.874;-1.092;2024-01-10T01:05:58;23.30;;;11.30;;
9783;SDS011;4931;44.874;-1.092;2024-01-10T01:08:23;23.80;;;10.52;;
9783;SDS011;4931;44.874;-1.092;2024-01-10T01:10:49;22.08;;;11.43;;
9783;SDS011;4931;44.874;-1.092;2024-01-10T01:13:14;20.63;;;10.55;;
9783;SDS011;4931;44.874;-1.092;2024-01-10T01:15:40;23.52;;;10.73;;
9783;SDS011;4931;44.874;-1.092;2024-01-10T01:18:06;25.23;;;11.30;;
9783;SDS011;4931;44.874;-1.092;2024-01-10T01:20:32;25.15;;;12.43;;
9783;SDS011;4931;44.874;-1.092;2024-01-10T01:22:58;29.15;;;14.38;;
9783;SDS011;4931;44.874;-1.092;2024-01-10T01:25:23;30.98;;;14.65;;
9783;SDS011;4931;44.874;-1.092;2024-01-10T01:27:49;27.38;;;13.85;;
9783;SDS011;4931;44.874;-1.092;2024-01-10T01:30:14;25.58;;;12.77;;
9783;SDS011;4931;44.874;-1.092;2024-01-10T01:32:40;24.67;;;11.75;;
9783;SDS011;4931;44.874;-1.092;2024-01-10T01:35:05;24.05;;;12.07;;
9783;SDS011;4931;44.874;-1.092;2024-01-10T01:37:31;23.17;;;12.68;;
9783;SDS011;4931;44.874;-1.092;2024-01-10T01:39:56;23.10;;;11.18;;
9783;SDS011;4931;44.874;-1.092;2024-01-10T01:42:22;23.45;;;10.75;;
9783;SDS011;4931;44.874;-1.092;2024-01-10T01:44:47;19.95;;;10.43;;
9783;SDS011;4931;44.874;-1.092;2024-01-10T01:47:13;23.52;;;10.75;;
9783;SDS011;4931;44.874;-1.092;2024-01-10T01:49:39;21.35;;;10.45;;
9783;SDS011;4931;44.874;-1.092;2024-01-10T01:52:07;21.15;;;10.77;;
9783;SDS011;4931;44.874;-1.092;2024-01-10T01:54:33;22.90;;;11.25;;
9783;SDS011;4931;44.874;-1.092;2024-01-10T01:56:58;23.58;;;10.90;;
9783;SDS011;4931;44.874;-1.092;2024-01-10T01:59:24;21.48;;;10.25;;
9783;SDS011;4931;44.874;-1.092;2024-01-10T02:01:51;22.80;;;10.50;;
9783;SDS011;4931;44.874;-1.092;2024-01-10T02:04:19;37.03;;;14.27;;
9783;SDS011;4931;44.874;-1.092;2024-01-10T02:06:45;24.70;;;11.77;;
9783;SDS011;4931;44.874;-1.092;2024-01-10T02:09:10;24.02;;;11.30;;
9783;SDS011;4931;44.874;-1.092;2024-01-10T02:11:36;19.83;;;10.45;;
9783;SDS011;4931;44.874;-1.092;2024-01-10T02:14:02;20.95;;;10.40;;
9783;SDS011;4931;44.874;-1.092;2024-01-10T02:16:27;23.95;;;10.73;;
9783;SDS011;4931;44.874;-1.092;2024-01-10T02:18:53;24.17;;;10.73;;
9783;SDS011;4931;44.874;-1.092;2024-01-10T02:21:22;19.77;;;10.45;;
9783;SDS011;4931;44.874;-1.092;2024-01-10T02:23:48;19.77;;;10.02;;
9783;SDS011;4931;44.874;-1.092;2024-01-10T02:26:14;20.95;;;10.30;;
9783;SDS011;4931;44.874;-1.092;2024-01-10T02:28:40;23.35;;;10.57;;
9783;SDS011;4931;44.874;-1.092;2024-01-10T02:31:05;23.15;;;11.50;;
9783;SDS011;4931;44.874;-1.092;2024-01-10T02:33:32;22.73;;;10.77;;
9783;SDS011;4931;44.874;-1.092;2024-01-10T02:35:57;22.58;;;10.90;;
9783;SDS011;4931;44.874;-1.092;2024-01-10T02:38:23;24.73;;;11.38;;
9783;SDS011;4931;44.874;-1.092;2024-01-10T02:40:49;22.75;;;10.50;;
9783;SDS011;4931;44.874;-1.092;2024-01-10T02:43:15;19.48;;;10.35;;
9783;SDS011;4931;44.874;-1.092;2024-01-10T02:45:40;21.17;;;10.48;;
9783;SDS011;4931;44.874;-1.092;2024-01-10T02:48:06;21.67;;;11.00;;
9783;SDS011;4931;44.874;-1.092;2024-01-10T02:50:32;21.27;;;10.00;;
9783;SDS011;4931;44.874;-1.092;2024-01-10T02:52:58;21.73;;;10.98;;
9783;SDS011;4931;44.874;-1.092;2024-01-10T02:55:23;22.70;;;11.40;;
9783;SDS011;4931;44.874;-1.092;2024-01-10T02:57:49;22.02;;;11.70;;
9783;SDS011;4931;44.874;-1.092;2024-01-10T03:00:14;21.60;;;10.48;;
9783;SDS011;4931;44.874;-1.092;2024-01-10T03:02:40;20.92;;;10.00;;
9783;SDS011;4931;44.874;-1.092;2024-01-10T03:05:06;24.13;;;10.57;;
9783;SDS011;4931;44.874;-1.092;2024-01-10T03:07:32;22.98;;;10.48;;
9783;SDS011;4931;44.874;-1.092;2024-01-10T03:09:57;21.83;;;10.25;;
9783;SDS011;4931;44.874;-1.092;2024-01-10T03:12:23;21.13;;;9.88;;
9783;SDS011;4931;44.874;-1.092;2024-01-10T03:14:48;19.70;;;9.27;;
9783;SDS011;4931;44.874;-1.092;2024-01-10T03:17:13;22.23;;;10.32;;
9783;SDS011;4931;44.874;-1.092;2024-01-10T03:19:39;19.35;;;9.73;;
9783;SDS011;4931;44.874;-1.092;2024-01-10T03:22:08;20.33;;;9.90;;
9783;SDS011;4931;44.874;-1.092;2024-01-10T03:24:34;18.95;;;9.63;;
9783;SDS011;4931;44.874;-1.092;2024-01-10T03:26:59;17.20;;;9.32;;
9783;SDS011;4931;44.874;-1.092;2024-01-10T03:29:25;22.00;;;10.43;;
9783;SDS011;4931;44.874;-1.092;2024-01-10T03:31:50;20.90;;;10.00;;
9783;SDS011;4931;44.874;-1.092;2024-01-10T03:34:16;19.98;;;9.68;;
9783;SDS011;4931;44.874;-1.092;2024-01-10T03:36:43;22.00;;;9.88;;
9783;SDS011;4931;44.874;-1.092;2024-01-10T03:39:08;21.10;;;10.07;;
9783;SDS011;4931;44.874;-1.092;2024-01-10T03:41:35;20.58;;;9.48;;
9783;SDS011;4931;44.874;-1.092;2024-01-10T03:44:00;19.83;;;9.63;;
9783;SDS011;4931;44.874;-1.092;2024-01-10T03:46:26;21.27;;;10.20;;
9783;SDS011;4931;44.874;-1.092;2024-01-10T03:48:52;19.88;;;9.60;;
9783;SDS011;4931;44.874;-1.092;2024-01-10T03:51:18;24.13;;;9.88;;
9783;SDS011;4931;44.874;-1.092;2024-01-10T03:53:44;23.27;;;9.77;;
9783;SDS011;4931;44.874;-1.092;2024-01-10T03:56:11;18.25;;;9.50;;
9783;SDS011;4931;44.874;-1.092;2024-01-10T03:58:37;17.73;;;9.43;;
9783;SDS011;4931;44.874;-1.092;2024-01-10T04:01:08;21.15;;;9.93;;
9783;SDS011;4931;44.874;-1.092;2024-01-10T04:03:34;20.65;;;9.73;;
9783;SDS011;4931;44.874;-1.092;2024-01-10T04:06:00;17.20;;;9.07;;
9783;SDS011;4931;44.874;-1.092;2024-01-10T04:08:29;19.60;;;10.38;;
9783;SDS011;4931;44.874;-1.092;2024-01-10T04:10:55;18.83;;;9.82;;
9783;SDS011;4931;44.874;-1.092;2024-01-10T04:13:20;20.95;;;9.45;;
9783;SDS011;4931;44.874;-1.092;2024-01-10T04:15:46;18.60;;;9.35;;
9783;SDS011;4931;44.874;-1.092;2024-01-10T04:18:11;20.77;;;9.25;;
9783;SDS011;4931;44.874;-1.092;2024-01-10T04:20:37;19.70;;;9.40;;
9783;SDS011;4931;44.874;-1.092;2024-01-10T04:23:02;19.33;;;9.80;;
9783;SDS011;4931;44.874;-1.092;2024-01-10T04:25:28;21.60;;;9.10;;
9783;SDS011;4931;44.874;-1.092;2024-01-10T04:27:53;19.45;;;9.85;;
9783;SDS011;4931;44.874;-1.092;2024-01-10T04:30:20;18.30;;;9.52;;
9783;SDS011;4931;44.874;-1.092;2024-01-10T04:32:46;17.75;;;9.00;;
9783;SDS011;4931;44.874;-1.092;2024-01-10T04:35:11;18.70;;;9.32;;
9783;SDS011;4931;44.874;-1.092;2024-01-10T04:37:36;16.90;;;8.35;;
9783;SDS011;4931;44.874;-1.092;2024-01-10T04:40:02;17.98;;;8.80;;
9783;SDS011;4931;44.874;-1.092;2024-01-10T04:42:29;17.42;;;8.88;;
9783;SDS011;4931;44.874;-1.092;2024-01-10T04:44:55;17.90;;;8.63;;
9783;SDS011;4931;44.874;-1.092;2024-01-10T04:47:20;18.60;;;8.95;;
9783;SDS011;4931;44.874;-1.092;2024-01-10T04:49:46;16.42;;;8.35;;
9783;SDS011;4931;44.874;-1.092;2024-01-10T04:52:12;19.58;;;8.23;;
9783;SDS011;4931;44.874;-1.092;2024-01-10T04:54:37;15.85;;;8.45;;
9783;SDS011;4931;44.874;-1.092;2024-01-10T04:57:03;17.55;;;8.82;;
9783;SDS011;4931;44.874;-1.092;2024-01-10T04:59:29;19.20;;;9.02;;
9783;SDS011;4931;44.874;-1.092;2024-01-10T05:01:54;18.95;;;8.80;;
9783;SDS011;4931;44.874;-1.092;2024-01-10T05:04:20;16.30;;;8.70;;
9783;SDS011;4931;44.874;-1.092;2024-01-10T05:06:45;17.92;;;8.90;;
9783;SDS011;4931;44.874;-1.092;2024-01-10T05:09:11;20.05;;;9.35;;
9783;SDS011;4931;44.874;-1.092;2024-01-10T05:11:39;17.75;;;8.95;;
9783;SDS011;4931;44.874;-1.092;2024-01-10T05:14:04;18.10;;;8.60;;
9783;SDS011;4931;44.874;-1.092;2024-01-10T05:16:30;19.73;;;9.13;;
9783;SDS011;4931;44.874;-1.092;2024-01-10T05:18:56;22.52;;;9.93;;
9783;SDS011;4931;44.874;-1.092;2024-01-10T05:21:25;18.70;;;9.50;;
9783;SDS011;4931;44.874;-1.092;2024-01-10T05:23:51;19.98;;;10.93;;
9783;SDS011;4931;44.874;-1.092;2024-01-10T05:26:17;18.42;;;9.48;;
9783;SDS011;4931;44.874;-1.092;2024-01-10T05:28:42;19.95;;;10.27;;
9783;SDS011;4931;44.874;-1.092;2024-01-10T05:31:08;18.52;;;9.52;;
9783;SDS011;4931;44.874;-1.092;2024-01-10T05:33:33;20.33;;;10.05;;
9783;SDS011;4931;44.874;-1.092;2024-01-10T05:35:58;19.92;;;10.40;;
9783;SDS011;4931;44.874;-1.092;2024-01-10T05:38:24;20.77;;;10.75;;
9783;SDS011;4931;44.874;-1.092;2024-01-10T05:40:49;19.15;;;10.10;;
9783;SDS011;4931;44.874;-1.092;2024-01-10T05:43:16;21.27;;;10.80;;
9783;SDS011;4931;44.874;-1.092;2024-01-10T05:45:42;18.67;;;9.63;;
9783;SDS011;4931;44.874;-1.092;2024-01-10T05:48:07;19.60;;;9.23;;
9783;SDS011;4931;44.874;-1.092;2024-01-10T05:50:33;15.10;;;8.32;;
9783;SDS011;4931;44.874;-1.092;2024-01-10T05:52:58;18.45;;;9.75;;
9783;SDS011;4931;44.874;-1.092;2024-01-10T05:55:24;17.95;;;9.52;;
9783;SDS011;4931;44.874;-1.092;2024-01-10T05:57:49;20.55;;;10.15;;
9783;SDS011;4931;44.874;-1.092;2024-01-10T06:00:15;18.63;;;9.77;;
9783;SDS011;4931;44.874;-1.092;2024-01-10T06:02:42;19.63;;;9.75;;
9783;SDS011;4931;44.874;-1.092;2024-01-10T06:05:08;22.38;;;10.52;;
9783;SDS011;4931;44.874;-1.092;2024-01-10T06:07:39;19.70;;;10.63;;
9783;SDS011;4931;44.874;-1.092;2024-01-10T06:10:07;21.98;;;11.43;;
9783;SDS011;4931;44.874;-1.092;2024-01-10T06:12:33;21.80;;;10.30;;
9783;SDS011;4931;44.874;-1.092;2024-01-10T06:14:58;23.27;;;10.75;;
9783;SDS011;4931;44.874;-1.092;2024-01-10T06:17:24;19.67;;;9.45;;
9783;SDS011;4931;44.874;-1.092;2024-01-10T06:19:49;19.05;;;9.18;;
9783;SDS011;4931;44.874;-1.092;2024-01-10T06:22:16;19.63;;;10.02;;
9783;SDS011;4931;44.874;-1.092;2024-01-10T06:24:42;17.45;;;9.55;;
9783;SDS011;4931;44.874;-1.092;2024-01-10T06:27:08;19.60;;;9.85;;
9783;SDS011;4931;44.874;-1.092;2024-01-10T06:29:34;18.85;;;9.65;;
9783;SDS011;4931;44.874;-1.092;2024-01-10T06:32:01;22.88;;;10.10;;
9783;SDS011;4931;44.874;-1.092;2024-01-10T06:34:27;47.17;;;11.52;;
9783;SDS011;4931;44.874;-1.092;2024-01-10T06:36:53;21.77;;;9.98;;
9783;SDS011;4931;44.874;-1.092;2024-01-10T06:39:18;20.33;;;9.75;;
9783;SDS011;4931;44.874;-1.092;2024-01-10T06:41:47;21.77;;;10.38;;
9783;SDS011;4931;44.874;-1.092;2024-01-10T06:44:14;21.75;;;10.43;;
9783;SDS011;4931;44.874;-1.092;2024-01-10T06:46:39;20.67;;;10.00;;
9783;SDS011;4931;44.874;-1.092;2024-01-10T06:49:05;19.90;;;10.05;;
9783;SDS011;4931;44.874;-1.092;2024-01-10T06:51:32;21.50;;;10.65;;
9783;SDS011;4931;44.874;-1.092;2024-01-10T06:53:58;22.58;;;10.73;;
9783;SDS011;4931;44.874;-1.092;2024-01-10T06:56:29;22.58;;;11.35;;
9783;SDS011;4931;44.874;-1.092;2024-01-10T06:58:55;24.27;;;11.18;;
9783;SDS011;4931;44.874;-1.092;2024-01-10T07:01:20;23.33;;;10.45;;
9783;SDS011;4931;44.874;-1.092;2024-01-10T07:03:47;21.88;;;10.70;;
9783;SDS011;4931;44.874;-1.092;2024-01-10T07:06:13;20.38;;;10.25;;
9783;SDS011;4931;44.874;-1.092;2024-01-10T07:08:40;24.27;;;11.93;;
9783;SDS011;4931;44.874;-1.092;2024-01-10T07:11:07;19.35;;;11.07;;
9783;SDS011;4931;44.874;-1.092;2024-01-10T07:13:33;22.40;;;11.05;;
9783;SDS011;4931;44.874;-1.092;2024-01-10T07:15:58;20.98;;;10.77;;
9783;SDS011;4931;44.874;-1.092;2024-01-10T07:18:27;22.70;;;11.98;;
9783;SDS011;4931;44.874;-1.092;2024-01-10T07:20:53;24.85;;;11.23;;
9783;SDS011;4931;44.874;-1.092;2024-01-10T07:23:19;24.65;;;11.77;;
9783;SDS011;4931;44.874;-1.092;2024-01-10T07:25:44;21.33;;;10.65;;
9783;SDS011;4931;44.874;-1.092;2024-01-10T07:28:10;23.60;;;11.93;;
9783;SDS011;4931;44.874;-1.092;2024-01-10T07:30:35;23.85;;;11.52;;
9783;SDS011;4931;44.874;-1.092;2024-01-10T07:33:00;21.27;;;11.40;;
9783;SDS011;4931;44.874;-1.092;2024-01-10T07:35:26;24.33;;;12.32;;
9783;SDS011;4931;44.874;-1.092;2024-01-10T07:37:52;25.17;;;12.65;;
9783;SDS011;4931;44.874;-1.092;2024-01-10T07:40:18;23.15;;;12.02;;
9783;SDS011;4931;44.874;-1.092;2024-01-10T07:42:43;25.73;;;12.38;;
9783;SDS011;4931;44.874;-1.092;2024-01-10T07:45:09;26.02;;;12.50;;
9783;SDS011;4931;44.874;-1.092;2024-01-10T07:47:35;26.17;;;12.52;;
9783;SDS011;4931;44.874;-1.092;2024-01-10T07:50:07;28.23;;;13.18;;
9783;SDS011;4931;44.874;-1.092;2024-01-10T07:52:33;26.38;;;12.93;;
9783;SDS011;4931;44.874;-1.092;2024-01-10T07:54:59;28.73;;;13.88;;
9783;SDS011;4931;44.874;-1.092;2024-01-10T07:57:25;29.27;;;13.82;;
9783;SDS011;4931;44.874;-1.092;2024-01-10T07:59:52;26.50;;;12.75;;
9783;SDS011;4931;44.874;-1.092;2024-01-10T08:02:18;27.60;;;13.63;;
9783;SDS011;4931;44.874;-1.092;2024-01-10T08:04:43;26.92;;;13.32;;
9783;SDS011;4931;44.874;-1.092;2024-01-10T08:07:09;31.27;;;13.88;;
9783;SDS011;4931;44.874;-1.092;2024-01-10T08:09:35;29.30;;;13.93;;
9783;SDS011;4931;44.874;-1.092;2024-01-10T08:12:02;31.25;;;14.25;;
9783;SDS011;4931;44.874;-1.092;2024-01-10T08:14:28;27.70;;;14.30;;
9783;SDS011;4931;44.874;-1.092;2024-01-10T08:16:53;29.60;;;13.65;;
9783;SDS011;4931;44.874;-1.092;2024-01-10T08:19:20;29.20;;;13.82;;
9783;SDS011;4931;44.874;-1.092;2024-01-10T08:21:45;31.85;;;14.63;;
9783;SDS011;4931;44.874;-1.092;2024-01-10T08:24:11;32.15;;;15.38;;
9783;SDS011;4931;44.874;-1.092;2024-01-10T08:26:36;32.05;;;14.60;;
9783;SDS011;4931;44.874;-1.092;2024-01-10T08:29:03;33.20;;;15.50;;
9783;SDS011;4931;44.874;-1.092;2024-01-10T08:31:28;32.55;;;14.40;;
9783;SDS011;4931;44.874;-1.092;2024-01-10T08:33:54;33.25;;;16.80;;
9783;SDS011;4931;44.874;-1.092;2024-01-10T08:36:21;32.30;;;15.38;;
9783;SDS011;4931;44.874;-1.092;2024-01-10T08:38:49;30.67;;;15.13;;
9783;SDS011;4931;44.874;-1.092;2024-01-10T08:41:15;27.65;;;14.52;;
9783;SDS011;4931;44.874;-1.092;2024-01-10T08:43:40;34.13;;;14.88;;
9783;SDS011;4931;44.874;-1.092;2024-01-10T08:46:07;30.08;;;14.73;;
9783;SDS011;4931;44.874;-1.092;2024-01-10T08:48:34;32.63;;;14.27;;
9783;SDS011;4931;44.874;-1.092;2024-01-10T08:51:00;32.15;;;14.23;;
9783;SDS011;4931;44.874;-1.092;2024-01-10T08:53:25;29.52;;;14.45;;
9783;SDS011;4931;44.874;-1.092;2024-01-10T08:55:51;35.03;;;16.80;;
9783;SDS011;4931;44.874;-1.092;2024-01-10T08:58:16;33.03;;;14.68;;
9783;SDS011;4931;44.874;-1.092;2024-01-10T09:00:41;34.53;;;17.30;;
9783;SDS011;4931;44.874;-1.092;2024-01-10T09:03:07;36.45;;;18.02;;
9783;SDS011;4931;44.874;-1.092;2024-01-10T09:05:33;36.63;;;17.30;;
9783;SDS011;4931;44.874;-1.092;2024-01-10T09:07:58;35.50;;;16.30;;
9783;SDS011;4931;44.874;-1.092;2024-01-10T09:10:24;32.30;;;15.13;;
9783;SDS011;4931;44.874;-1.092;2024-01-10T09:12:53;31.52;;;14.80;;
9783;SDS011;4931;44.874;-1.092;2024-01-10T09:15:19;34.33;;;15.30;;
9783;SDS011;4931;44.874;-1.092;2024-01-10T09:17:44;30.73;;;13.80;;
9783;SDS011;4931;44.874;-1.092;2024-01-10T09:20:11;46.17;;;18.23;;
9783;SDS011;4931;44.874;-1.092;2024-01-10T09:22:37;36.63;;;17.83;;
9783;SDS011;4931;44.874;-1.092;2024-01-10T09:25:06;31.83;;;15.45;;
9783;SDS011;4931;44.874;-1.092;2024-01-10T09:27:32;72.90;;;30.83;;
9783;SDS011;4931;44.874;-1.092;2024-01-10T09:29:59;33.10;;;15.23;;
9783;SDS011;4931;44.874;-1.092;2024-01-10T09:32:27;32.63;;;14.68;;
9783;SDS011;4931;44.874;-1.092;2024-01-10T09:34:53;27.38;;;13.40;;
9783;SDS011;4931;44.874;-1.092;2024-01-10T09:37:19;36.50;;;17.38;;
9783;SDS011;4931;44.874;-1.092;2024-01-10T09:39:44;41.83;;;20.27;;
9783;SDS011;4931;44.874;-1.092;2024-01-10T09:42:10;46.58;;;21.77;;
9783;SDS011;4931;44.874;-1.092;2024-01-10T09:44:36;38.95;;;17.55;;
9783;SDS011;4931;44.874;-1.092;2024-01-10T09:47:02;56.42;;;23.83;;
9783;SDS011;4931;44.874;-1.092;2024-01-10T09:49:27;49.60;;;22.42;;
9783;SDS011;4931;44.874;-1.092;2024-01-10T09:51:57;31.58;;;14.70;;
9783;SDS011;4931;44.874;-1.092;2024-01-10T09:54:24;34.38;;;16.60;;
9783;SDS011;4931;44.874;-1.092;2024-01-10T09:56:51;31.88;;;15.02;;
9783;SDS011;4931;44.874;-1.092;2024-01-10T09:59:18;35.40;;;15.88;;
9783;SDS011;4931;44.874;-1.092;2024-01-10T10:01:43;29.45;;;15.10;;
9783;SDS011;4931;44.874;-1.092;2024-01-10T10:04:09;30.10;;;14.80;;
9783;SDS011;4931;44.874;-1.092;2024-01-10T10:06:37;32.45;;;15.13;;
9783;SDS011;4931;44.874;-1.092;2024-01-10T10:09:03;27.65;;;14.02;;
9783;SDS011;4931;44.874;-1.092;2024-01-10T10:11:29;32.15;;;15.27;;
9783;SDS011;4931;44.874;-1.092;2024-01-10T10:13:55;38.28;;;17.02;;
9783;SDS011;4931;44.874;-1.092;2024-01-10T10:16:24;28.65;;;13.90;;
9783;SDS011;4931;44.874;-1.092;2024-01-10T10:18:54;29.08;;;13.65;;
9783;SDS011;4931;44.874;-1.092;2024-01-10T10:21:24;34.55;;;17.10;;
9783;SDS011;4931;44.874;-1.092;2024-01-10T10:23:59;32.47;;;13.48;;
9783;SDS011;4931;44.874;-1.092;2024-01-10T10:26:32;33.20;;;15.20;;
9783;SDS011;4931;44.874;-1.092;2024-01-10T10:28:59;28.38;;;13.75;;
9783;SDS011;4931;44.874;-1.092;2024-01-10T10:31:24;26.00;;;13.80;;
9783;SDS011;4931;44.874;-1.092;2024-01-10T10:33:51;26.35;;;12.63;;
9783;SDS011;4931;44.874;-1.092;2024-01-10T10:36:17;29.02;;;13.65;;
9783;SDS011;4931;44.874;-1.092;2024-01-10T10:38:43;31.77;;;14.77;;
9783;SDS011;4931;44.874;-1.092;2024-01-10T10:41:09;29.77;;;13.85;;
9783;SDS011;4931;44.874;-1.092;2024-01-10T10:43:38;29.98;;;14.15;;
9783;SDS011;4931;44.874;-1.092;2024-01-10T10:46:05;29.70;;;14.55;;
9783;SDS011;4931;44.874;-1.092;2024-01-10T10:48:37;33.45;;;14.63;;
9783;SDS011;4931;44.874;-1.092;2024-01-10T10:51:04;28.92;;;14.38;;
9783;SDS011;4931;44.874;-1.092;2024-01-10T10:53:33;32.88;;;14.88;;
9783;SDS011;4931;44.874;-1.092;2024-01-10T10:56:00;29.90;;;14.80;;
9783;SDS011;4931;44.874;-1.092;2024-01-10T10:58:31;26.98;;;13.68;;
9783;SDS011;4931;44.874;-1.092;2024-01-10T11:00:59;24.10;;;13.05;;
9783;SDS011;4931;44.874;-1.092;2024-01-10T11:03:25;31.30;;;15.35;;
9783;SDS011;4931;44.874;-1.092;2024-01-10T11:05:55;26.92;;;13.35;;
9783;SDS011;4931;44.874;-1.092;2024-01-10T11:08:22;27.58;;;13.88;;
9783;SDS011;4931;44.874;-1.092;2024-01-10T11:10:49;26.95;;;13.73;;
9783;SDS011;4931;44.874;-1.092;2024-01-10T11:16:25;26.63;;;13.60;;
9783;SDS011;4931;44.874;-1.092;2024-01-10T11:24:38;26.98;;;13.60;;
9783;SDS011;4931;44.874;-1.092;2024-01-10T11:27:08;30.63;;;14.75;;
9783;SDS011;4931;44.874;-1.092;2024-01-10T11:29:37;27.17;;;13.35;;
9783;SDS011;4931;44.874;-1.092;2024-01-10T11:32:04;25.48;;;12.60;;
9783;SDS011;4931;44.874;-1.092;2024-01-10T11:34:30;29.02;;;14.60;;
9783;SDS011;4931;44.874;-1.092;2024-01-10T11:37:11;30.55;;;15.77;;
9783;SDS011;4931;44.874;-1.092;2024-01-10T11:39:40;25.73;;;13.40;;
9783;SDS011;4931;44.874;-1.092;2024-01-10T11:42:07;21.33;;;11.77;;
9783;SDS011;4931;44.874;-1.092;2024-01-10T11:44:34;24.17;;;12.27;;
9783;SDS011;4931;44.874;-1.092;2024-01-10T11:47:01;24.25;;;11.77;;
9783;SDS011;4931;44.874;-1.092;2024-01-10T11:49:29;26.98;;;13.70;;
9783;SDS011;4931;44.874;-1.092;2024-01-10T11:51:55;24.60;;;12.70;;
9783;SDS011;4931;44.874;-1.092;2024-01-10T11:57:11;28.13;;;13.23;;
9783;SDS011;4931;44.874;-1.092;2024-01-10T11:59:39;25.80;;;13.43;;
9783;SDS011;4931;44.874;-1.092;2024-01-10T12:02:06;27.25;;;13.25;;
9783;SDS011;4931;44.874;-1.092;2024-01-10T12:04:33;26.92;;;13.63;;
9783;SDS011;4931;44.874;-1.092;2024-01-10T12:07:00;26.85;;;13.15;;
9783;SDS011;4931;44.874;-1.092;2024-01-10T12:09:28;27.48;;;13.38;;
9783;SDS011;4931;44.874;-1.092;2024-01-10T12:11:53;26.67;;;13.35;;
9783;SDS011;4931;44.874;-1.092;2024-01-10T12:14:19;31.63;;;14.27;;
9783;SDS011;4931;44.874;-1.092;2024-01-10T12:16:46;27.98;;;13.43;;
9783;SDS011;4931;44.874;-1.092;2024-01-10T12:19:12;26.73;;;13.18;;
9783;SDS011;4931;44.874;-1.092;2024-01-10T12:21:38;30.13;;;14.02;;
9783;SDS011;4931;44.874;-1.092;2024-01-10T12:24:05;27.90;;;13.55;;
9783;SDS011;4931;44.874;-1.092;2024-01-10T12:26:31;30.60;;;14.50;;
9783;SDS011;4931;44.874;-1.092;2024-01-10T12:28:57;30.02;;;14.57;;
9783;SDS011;4931;44.874;-1.092;2024-01-10T12:31:24;29.80;;;14.65;;
9783;SDS011;4931;44.874;-1.092;2024-01-10T12:33:56;26.58;;;13.48;;
9783;SDS011;4931;44.874;-1.092;2024-01-10T12:36:22;30.27;;;14.07;;
9783;SDS011;4931;44.874;-1.092;2024-01-10T12:38:48;29.05;;;14.48;;
9783;SDS011;4931;44.874;-1.092;2024-01-10T12:41:15;34.15;;;14.52;;
9783;SDS011;4931;44.874;-1.092;2024-01-10T12:43:42;30.42;;;14.38;;
9783;SDS011;4931;44.874;-1.092;2024-01-10T12:46:10;29.10;;;15.63;;
9783;SDS011;4931;44.874;-1.092;2024-01-10T12:48:40;29.00;;;15.32;;
9783;SDS011;4931;44.874;-1.092;2024-01-10T12:51:07;29.52;;;14.10;;
9783;SDS011;4931;44.874;-1.092;2024-01-10T12:53:33;29.38;;;14.05;;
9783;SDS011;4931;44.874;-1.092;2024-01-10T12:56:03;28.83;;;13.70;;
9783;SDS011;4931;44.874;-1.092;2024-01-10T12:58:31;28.33;;;13.82;;
9783;SDS011;4931;44.874;-1.092;2024-01-10T13:00:57;29.77;;;14.52;;
9783;SDS011;4931;44.874;-1.092;2024-01-10T13:03:22;25.75;;;13.35;;
9783;SDS011;4931;44.874;-1.092;2024-01-10T13:05:49;26.73;;;13.82;;
9783;SDS011;4931;44.874;-1.092;2024-01-10T13:08:15;29.40;;;14.10;;
9783;SDS011;4931;44.874;-1.092;2024-01-10T13:10:41;24.50;;;13.10;;
9783;SDS011;4931;44.874;-1.092;2024-01-10T13:13:07;27.83;;;13.68;;
9783;SDS011;4931;44.874;-1.092;2024-01-10T13:15:32;27.70;;;13.50;;
9783;SDS011;4931;44.874;-1.092;2024-01-10T13:17:58;26.55;;;13.40;;
9783;SDS011;4931;44.874;-1.092;2024-01-10T13:20:23;27.30;;;13.27;;
9783;SDS011;4931;44.874;-1.092;2024-01-10T13:22:50;25.75;;;12.82;;
9783;SDS011;4931;44.874;-1.092;2024-01-10T13:25:16;28.23;;;13.43;;
9783;SDS011;4931;44.874;-1.092;2024-01-10T13:27:42;26.63;;;12.07;;
9783;SDS011;4931;44.874;-1.092;2024-01-10T13:30:08;25.70;;;13.20;;
9783;SDS011;4931;44.874;-1.092;2024-01-10T13:32:37;25.40;;;12.98;;
9783;SDS011;4931;44.874;-1.092;2024-01-10T13:35:03;29.63;;;14.15;;
9783;SDS011;4931;44.874;-1.092;2024-01-10T13:37:29;27.85;;;14.40;;
9783;SDS011;4931;44.874;-1.092;2024-01-10T13:39:56;26.65;;;13.02;;
9783;SDS011;4931;44.874;-1.092;2024-01-10T13:42:22;27.15;;;12.80;;
9783;SDS011;4931;44.874;-1.092;2024-01-10T13:44:48;24.63;;;12.30;;
9783;SDS011;4931;44.874;-1.092;2024-01-10T13:47:14;23.02;;;11.90;;
9783;SDS011;4931;44.874;-1.092;2024-01-10T13:49:42;22.98;;;12.20;;
9783;SDS011;4931;44.874;-1.092;2024-01-10T13:52:08;22.75;;;12.30;;
9783;SDS011;4931;44.874;-1.092;2024-01-10T13:54:33;23.17;;;12.10;;
9783;SDS011;4931;44.874;-1.092;2024-01-10T13:56:58;19.88;;;10.90;;
9783;SDS011;4931;44.874;-1.092;2024-01-10T13:59:24;21.35;;;11.50;;
9783;SDS011;4931;44.874;-1.092;2024-01-10T14:01:49;23.63;;;11.60;;
9783;SDS011;4931;44.874;-1.092;2024-01-10T14:04:15;26.15;;;12.45;;
9783;SDS011;4931;44.874;-1.092;2024-01-10T14:06:40;43.47;;;20.45;;
9783;SDS011;4931;44.874;-1.092;2024-01-10T14:09:06;41.92;;;18.55;;
9783;SDS011;4931;44.874;-1.092;2024-01-10T14:11:35;47.53;;;18.95;;
9783;SDS011;4931;44.874;-1.092;2024-01-10T14:14:00;32.08;;;14.77;;
9783;SDS011;4931;44.874;-1.092;2024-01-10T14:16:26;25.63;;;12.93;;
9783;SDS011;4931;44.874;-1.092;2024-01-10T14:18:53;27.67;;;11.82;;
9783;SDS011;4931;44.874;-1.092;2024-01-10T14:21:20;24.50;;;12.18;;
9783;SDS011;4931;44.874;-1.092;2024-01-10T14:23:46;22.25;;;11.52;;
9783;SDS011;4931;44.874;-1.092;2024-01-10T14:26:12;30.25;;;12.77;;
9783;SDS011;4931;44.874;-1.092;2024-01-10T14:28:39;19.50;;;10.25;;
9783;SDS011;4931;44.874;-1.092;2024-01-10T14:31:04;22.05;;;11.13;;
9783;SDS011;4931;44.874;-1.092;2024-01-10T14:33:30;21.13;;;11.07;;
9783;SDS011;4931;44.874;-1.092;2024-01-10T14:35:55;22.42;;;11.68;;
9783;SDS011;4931;44.874;-1.092;2024-01-10T14:38:21;18.80;;;9.90;;
9783;SDS011;4931;44.874;-1.092;2024-01-10T14:40:47;19.35;;;9.65;;